Portada
METAR-TAF:

METAR-TAF

Aeroports :

Illa Norfolk, Austràlia

latitud: 29-02S, longitud: 167-56E, altitud: 113 m

Observació

L'informe es va fer fa 32 minuts, a les 15:00 UTC
Vent 10 kt del Sud/Sud-Est
Temperatura 15°C
Humitat 67%
Pressió 1026 hPa
Visibilitat 10 km o més
Núvols disperses a una alçada de 3100 ft

METAR: YSNF 091500Z AUTO 16010KT 9999 // SCT031 15/09 Q1026

Hora: 01:32 (15:32 UTC)

Pronòstic

L'informe es va fer fa 4 hores i 37 minuts, a les 10:55 UTC
Pronòstic vàlid del 09 a les 12 UTC al 10 a les 12 UTC
Vent 14 kt del Sud
Visibilitat: 4000 m
Núvols disperses a una alçada de 2500 ft
Cel ennuvolat a una alçada de 1500 ft
Cel ennuvolat a una alçada de 1500 ft
xàfecs de pluja, xàfecs de pluja, xàfecs de pluja

TAF: YSNF 091055Z 0912/1012 17014KT 9999 -SHRA SCT025 INTER 0912/0921 4000 SHRA BKN015 INTER 1003/1007 4000 SHRA BKN015

Observacions i pronòstics meteorològics de més de 4000 aeroports (METAR i TAF).

Les estacions disponibles són els punts grocs i vermells al mapa.

Posi el ratolí al punt desitjat per veure el nom de l'estació.

Feu clic per veure les observacions i els pronòstics meteorològics.

Per canviar el mapa: feu clic els botons verds amb una creu de color negre per apropar; al botó verd amb un guió per allunyar la imatge; o en les fletxes verdes per a mapes adjacents.


METAR-TAF: